Time;durP1;ratioP1;P1;durP2;ratioP2;P2;SDS_P1;SDS_P2;PMS_P1;PMS_P2;Temp;Humidity;BMP_temperature;BMP_pressure;BME280_temperature;BME280_humidity;BME280_pressure;Samples;Min_cycle;Max_cycle;Signal;HPM_P1;HPM_P2
2023/11/07 00:00:27;;;;;;;8.55;2.67;;;;;;;14.23;93.26;100766.69;5051580;28;20041;-73
2023/11/07 00:02:53;;;;;;;6.97;2.40;;;;;;;14.21;92.97;100762.28;5072451;28;20398;-73
2023/11/07 00:05:22;;;;;;;5.72;2.30;;;;;;;13.84;94.08;100750.91;5072831;28;20032;-72
2023/11/07 00:07:48;;;;;;;6.38;2.10;;;;;;;13.90;94.99;100775.28;5054326;28;20103;-73
2023/11/07 00:10:13;;;;;;;9.27;3.55;;;;;;;13.75;95.24;100764.50;5072835;28;20657;-73
2023/11/07 00:12:39;;;;;;;7.30;2.72;;;;;;;13.86;95.14;100782.97;5071620;28;20029;-72
2023/11/07 00:15:05;;;;;;;5.95;2.10;;;;;;;13.73;95.32;100774.84;5072381;28;20028;-72
2023/11/07 00:17:30;;;;;;;5.90;2.20;;;;;;;13.77;94.52;100786.19;5072695;28;20044;-73
2023/11/07 00:19:56;;;;;;;5.15;2.47;;;;;;;13.42;94.42;100708.19;5072639;28;20049;-73
2023/11/07 00:22:23;;;;;;;6.30;2.25;;;;;;;13.86;94.00;100785.56;5072218;28;20025;-72
2023/11/07 00:24:49;;;;;;;4.93;2.65;;;;;;;13.75;95.30;100786.13;5053861;28;20037;-72
2023/11/07 00:27:16;;;;;;;7.03;2.72;;;;;;;13.78;95.97;100777.53;5071174;28;20031;-74
2023/11/07 00:29:41;;;;;;;8.93;2.72;;;;;;;13.66;96.90;100753.88;5072568;28;20028;-73
2023/11/07 00:32:07;;;;;;;9.05;2.40;;;;;;;13.73;97.01;100776.53;5071906;28;20035;-73
2023/11/07 00:34:32;;;;;;;8.60;2.65;;;;;;;13.87;97.12;100779.56;5054354;28;20028;-73
2023/11/07 00:36:58;;;;;;;8.10;2.42;;;;;;;13.93;96.00;100776.22;5052928;28;20029;-72
2023/11/07 00:39:23;;;;;;;5.97;2.40;;;;;;;13.83;96.61;100782.88;5072208;28;20021;-74
2023/11/07 00:41:49;;;;;;;6.75;2.38;;;;;;;13.71;95.78;100763.53;5072384;28;20024;-73
2023/11/07 00:44:14;;;;;;;7.15;2.50;;;;;;;13.66;96.33;100770.28;5060465;28;20051;-72
2023/11/07 00:46:40;;;;;;;8.30;2.53;;;;;;;13.72;97.01;100778.25;5052199;28;20402;-73
2023/11/07 00:49:05;;;;;;;10.05;2.50;;;;;;;13.69;97.98;100772.97;5052140;28;20029;-73
2023/11/07 00:51:31;;;;;;;9.75;2.40;;;;;;;13.75;97.39;100774.88;5052099;28;20037;-73
2023/11/07 00:53:57;;;;;;;9.15;2.40;;;;;;;13.81;96.58;100782.84;5052555;28;20792;-73
2023/11/07 00:56:23;;;;;;;7.55;2.53;;;;;;;13.79;96.93;100770.66;5051947;28;20033;-73
2023/11/07 00:58:48;;;;;;;8.95;2.40;;;;;;;13.96;96.16;100777.19;5052290;28;20028;-73
2023/11/07 01:01:17;;;;;;;6.60;2.47;;;;;;;13.97;96.07;100789.34;5051900;28;20380;-73
2023/11/07 01:03:44;;;;;;;8.32;2.72;;;;;;;14.02;95.61;100785.16;5052020;28;20553;-73
2023/11/07 01:06:09;;;;;;;10.43;2.33;;;;;;;14.03;94.63;100786.91;5051770;28;20029;-74
2023/11/07 01:08:35;;;;;;;7.03;2.88;;;;;;;13.73;92.94;100764.47;5052036;28;20162;-75
2023/11/07 01:11:00;;;;;;;8.63;2.88;;;;;;;13.59;92.57;100774.44;5051703;28;20059;-73
2023/11/07 01:13:27;;;;;;;9.02;2.70;;;;;;;13.53;92.83;100779.44;5051668;28;20036;-73
2023/11/07 01:15:53;;;;;;;5.18;2.70;;;;;;;12.40;93.65;100601.44;5052098;28;20079;-73
2023/11/07 01:18:18;;;;;;;5.63;2.47;;;;;;;13.40;93.97;100783.34;5033895;28;20471;-73
2023/11/07 01:20:45;;;;;;;11.27;2.70;;;;;;;13.35;93.75;100782.31;5051299;28;20045;-73
2023/11/07 01:23:11;;;;;;;8.05;2.47;;;;;;;12.69;93.94;100695.59;5051442;28;20541;-73
2023/11/07 01:25:37;;;;;;;5.43;2.70;;;;;;;13.22;94.50;100782.75;5051777;28;20025;-73
2023/11/07 01:28:02;;;;;;;5.32;2.10;;;;;;;13.07;94.47;100768.50;5051665;28;20078;-73
2023/11/07 01:30:28;;;;;;;5.18;2.20;;;;;;;13.09;94.84;100795.31;5051399;28;20079;-73
2023/11/07 01:32:53;;;;;;;6.07;2.85;;;;;;;12.93;95.92;100782.72;5051720;28;20033;-73
2023/11/07 01:35:19;;;;;;;9.80;3.30;;;;;;;12.56;95.97;100727.09;5028716;28;20048;-73
2023/11/07 01:37:44;;;;;;;9.10;2.80;;;;;;;12.90;96.03;100787.81;5028559;28;20513;-73
2023/11/07 01:40:10;;;;;;;7.22;2.50;;;;;;;12.91;96.16;100797.31;5014221;28;20079;-73
2023/11/07 01:42:46;;;;;;;7.93;2.70;;;;;;;12.94;95.84;100797.44;5048708;28;20075;-73
2023/11/07 01:45:12;;;;;;;10.05;2.20;;;;;;;12.88;95.88;100808.47;5048723;28;20033;-73
2023/11/07 01:47:39;;;;;;;9.63;2.53;;;;;;;12.78;96.44;100796.06;5032284;28;20095;-73
2023/11/07 01:50:10;;;;;;;8.90;2.20;;;;;;;12.87;96.02;100808.44;5048645;28;20045;-73
2023/11/07 01:52:36;;;;;;;7.65;2.80;;;;;;;12.71;96.17;100812.22;5048530;28;20029;-73
2023/11/07 01:55:02;;;;;;;9.18;2.65;;;;;;;12.74;96.19;100810.63;5048582;28;20064;-73
2023/11/07 01:57:28;;;;;;;8.52;2.92;;;;;;;12.82;95.93;100812.59;5048694;28;20059;-73
2023/11/07 01:59:54;;;;;;;15.15;2.95;;;;;;;12.79;95.54;100814.22;5047727;28;20422;-73
2023/11/07 02:02:22;;;;;;;8.50;2.60;;;;;;;12.88;95.20;100830.94;5048353;28;20075;-73
2023/11/07 02:04:47;;;;;;;10.98;3.20;;;;;;;12.72;95.50;100827.84;5046627;28;20037;-73
2023/11/07 02:07:14;;;;;;;5.28;2.33;;;;;;;12.57;97.19;100830.78;5067672;28;20517;-73
2023/11/07 02:09:41;;;;;;;6.70;2.53;;;;;;;12.49;97.99;100839.13;5071226;28;20040;-72
2023/11/07 02:12:08;;;;;;;5.95;2.22;;;;;;;12.13;99.54;100825.75;5070724;28;20036;-73
2023/11/07 02:14:35;;;;;;;7.40;2.67;;;;;;;12.20;100.00;100828.56;5070525;28;20036;-73
2023/11/07 02:17:01;;;;;;;6.18;2.40;;;;;;;12.28;99.74;100837.50;5070559;28;20032;-73
2023/11/07 02:19:27;;;;;;;7.35;2.58;;;;;;;12.36;98.85;100838.69;5070787;28;20063;-73
2023/11/07 02:21:59;;;;;;;5.82;2.42;;;;;;;12.40;98.09;100845.72;5070699;28;20020;-73
2023/11/07 02:24:24;;;;;;;9.75;2.28;;;;;;;12.17;98.31;100825.91;5070679;28;20032;-73
2023/11/07 02:26:56;;;;;;;5.32;2.17;;;;;;;12.20;98.59;100851.88;5069790;28;20078;-73
2023/11/07 02:29:23;;;;;;;11.38;2.45;;;;;;;12.12;98.75;100862.84;5070472;28;20383;-73
2023/11/07 02:31:50;;;;;;;6.53;2.60;;;;;;;12.13;98.14;100856.81;5070204;28;20058;-72
2023/11/07 02:34:16;;;;;;;8.80;3.40;;;;;;;11.75;97.94;100791.59;5070421;28;20086;-72
2023/11/07 02:36:42;;;;;;;5.65;2.13;;;;;;;11.43;98.15;100757.63;5070323;28;20028;-73
2023/11/07 02:39:12;;;;;;;9.82;2.60;;;;;;;11.56;98.81;100796.88;5070228;28;20032;-73
2023/11/07 02:41:38;;;;;;;6.75;2.13;;;;;;;11.91;98.83;100865.47;5070556;28;20028;-73
2023/11/07 02:44:05;;;;;;;5.07;2.55;;;;;;;11.97;99.12;100876.09;5070463;28;20040;-73
2023/11/07 02:46:30;;;;;;;10.38;2.20;;;;;;;12.04;98.93;100871.16;5069630;28;20032;-73
2023/11/07 02:48:55;;;;;;;7.07;2.60;;;;;;;12.07;98.75;100872.13;5069398;28;20016;-73
2023/11/07 02:51:22;;;;;;;9.23;2.92;;;;;;;12.09;98.31;100874.78;5070379;28;20028;-73
2023/11/07 02:53:50;;;;;;;6.82;2.20;;;;;;;11.65;97.59;100797.22;5070188;28;20028;-73
2023/11/07 02:56:17;;;;;;;6.30;2.30;;;;;;;12.17;97.17;100878.53;5070404;28;20463;-73
2023/11/07 02:58:43;;;;;;;7.20;2.50;;;;;;;12.05;97.02;100863.44;5070206;28;20406;-73
2023/11/07 03:01:09;;;;;;;9.18;2.88;;;;;;;12.06;96.68;100872.97;5070116;28;20035;-74
2023/11/07 03:03:34;;;;;;;7.00;2.40;;;;;;;12.04;96.59;100874.63;5070232;28;20040;-73
2023/11/07 03:06:00;;;;;;;6.50;2.55;;;;;;;11.44;97.41;100803.34;5070137;28;20486;-73
2023/11/07 03:08:25;;;;;;;5.43;2.30;;;;;;;11.78;98.43;100887.41;5069861;28;20028;-72
2023/11/07 03:10:51;;;;;;;5.53;2.28;;;;;;;11.65;99.07;100890.31;5069952;28;20158;-73
2023/11/07 03:13:19;;;;;;;9.23;2.20;;;;;;;11.42;100.00;100890.28;5070251;28;20025;-73
2023/11/07 03:15:46;;;;;;;7.68;2.38;;;;;;;11.28;100.00;100894.03;5069573;28;20110;-73
2023/11/07 03:18:12;;;;;;;6.80;2.67;;;;;;;10.88;100.00;100871.69;5069965;28;20500;-73
2023/11/07 03:20:38;;;;;;;5.55;2.33;;;;;;;10.46;100.00;100806.28;5069899;28;20140;-72
2023/11/07 03:23:04;;;;;;;8.75;2.53;;;;;;;10.93;100.00;100872.75;5035356;28;20064;-73
2023/11/07 03:25:29;;;;;;;6.05;2.45;;;;;;;11.09;100.00;100890.69;5069662;28;20125;-73
2023/11/07 03:27:55;;;;;;;4.60;2.08;;;;;;;11.00;100.00;100890.28;5069882;28;20020;-73
2023/11/07 03:30:20;;;;;;;9.55;2.38;;;;;;;11.07;100.00;100873.38;5069858;28;20036;-73
2023/11/07 03:32:45;;;;;;;4.13;2.25;;;;;;;10.71;100.00;100793.53;5067546;28;20028;-72
2023/11/07 03:35:11;;;;;;;5.45;2.40;;;;;;;11.33;100.00;100901.16;5069780;28;20033;-75
2023/11/07 03:37:38;;;;;;;6.15;2.30;;;;;;;10.92;100.00;100817.66;5069979;28;20029;-73
2023/11/07 03:40:05;;;;;;;5.72;2.60;;;;;;;11.37;100.00;100897.00;5069797;28;20024;-73
2023/11/07 03:42:30;;;;;;;7.70;2.65;;;;;;;11.33;100.00;100884.78;5069529;28;20490;-73
2023/11/07 03:44:56;;;;;;;8.25;2.40;;;;;;;11.29;99.94;100882.84;5069491;28;20068;-73
2023/11/07 03:47:22;;;;;;;9.15;2.65;;;;;;;11.27;99.56;100877.63;5069978;28;20035;-73
2023/11/07 03:49:47;;;;;;;5.68;2.20;;;;;;;11.41;99.06;100892.81;5069365;28;20037;-73
2023/11/07 03:52:12;;;;;;;7.85;2.42;;;;;;;11.47;99.19;100899.13;5069556;28;20482;-73
2023/11/07 03:54:38;;;;;;;7.47;2.40;;;;;;;11.47;98.95;100903.41;5069128;28;20036;-74
2023/11/07 03:57:03;;;;;;;4.85;2.70;;;;;;;11.45;98.83;100900.78;5069502;28;20029;-74
2023/11/07 03:59:29;;;;;;;4.82;2.22;;;;;;;11.33;99.45;100908.91;5069770;28;20082;-73
2023/11/07 04:01:55;;;;;;;5.35;2.10;;;;;;;11.19;99.85;100907.47;5073329;28;20440;-73
2023/11/07 04:04:21;;;;;;;5.80;2.53;;;;;;;10.95;100.00;100891.81;5073376;28;20028;-73
2023/11/07 04:06:48;;;;;;;5.65;2.65;;;;;;;10.60;100.00;100836.97;5073187;28;20031;-74
2023/11/07 04:09:13;;;;;;;5.53;2.63;;;;;;;11.02;100.00;100914.50;5073082;28;20034;-74
2023/11/07 04:11:39;;;;;;;6.20;2.25;;;;;;;10.95;100.00;100915.97;5073261;28;20036;-73
2023/11/07 04:14:05;;;;;;;3.80;2.42;;;;;;;10.44;100.00;100850.91;5072694;28;20094;-73
2023/11/07 04:16:31;;;;;;;7.53;2.15;;;;;;;10.29;100.00;100826.19;5073197;28;20119;-73
2023/11/07 04:18:57;;;;;;;6.22;2.45;;;;;;;10.76;100.00;100910.81;5054906;28;20068;-73
2023/11/07 04:21:22;;;;;;;7.25;2.50;;;;;;;10.47;100.00;100862.25;5072811;28;20040;-73
2023/11/07 04:23:47;;;;;;;6.47;2.30;;;;;;;10.25;100.00;100836.28;5072324;28;20032;-73
2023/11/07 04:26:13;;;;;;;10.02;2.35;;;;;;;10.68;100.00;100920.81;5072452;28;20093;-73
2023/11/07 04:28:39;;;;;;;6.63;2.40;;;;;;;10.02;100.00;100808.66;5072533;28;20409;-73
2023/11/07 04:31:05;;;;;;;6.25;2.45;;;;;;;10.68;100.00;100913.06;5072812;28;20028;-73
2023/11/07 04:33:33;;;;;;;8.55;2.53;;;;;;;10.68;100.00;100900.16;5072567;28;20035;-73
2023/11/07 04:35:59;;;;;;;7.10;2.92;;;;;;;10.86;100.00;100920.72;5072019;28;20493;-73
2023/11/07 04:38:26;;;;;;;7.57;2.40;;;;;;;10.77;100.00;100912.59;5072468;28;20021;-73
2023/11/07 04:40:52;;;;;;;5.15;2.58;;;;;;;10.76;100.00;100923.72;5072385;28;20058;-73
2023/11/07 04:43:18;;;;;;;9.70;3.20;;;;;;;10.22;100.00;100846.47;5029710;28;20080;-73
2023/11/07 04:45:43;;;;;;;10.40;2.95;;;;;;;10.74;100.00;100936.59;5030088;28;20125;-73
2023/11/07 04:48:11;;;;;;;5.60;2.75;;;;;;;10.68;100.00;100939.75;5030085;28;20068;-73
2023/11/07 04:50:37;;;;;;;6.68;2.55;;;;;;;10.69;100.00;100940.63;5029572;28;20521;-73
2023/11/07 04:53:04;;;;;;;10.57;3.05;;;;;;;10.73;100.00;100945.13;5013594;28;20034;-73
2023/11/07 04:55:31;;;;;;;9.43;2.78;;;;;;;10.50;100.00;100949.28;5029562;28;20033;-73
2023/11/07 04:57:57;;;;;;;11.05;3.10;;;;;;;10.44;100.00;100946.41;5029533;28;20053;-72
2023/11/07 05:00:22;;;;;;;7.55;2.70;;;;;;;10.41;100.00;100944.56;5029609;28;20065;-73
2023/11/07 05:02:49;;;;;;;5.05;2.40;;;;;;;10.48;100.00;100951.78;5029623;28;20045;-73
2023/11/07 05:05:15;;;;;;;8.15;2.65;;;;;;;10.05;100.00;100893.03;5029608;28;20123;-73
2023/11/07 05:07:40;;;;;;;6.07;2.38;;;;;;;10.49;100.00;100968.16;5029679;28;20057;-73
2023/11/07 05:10:09;;;;;;;7.35;2.58;;;;;;;10.13;100.00;100902.00;5013190;28;20044;-73
2023/11/07 05:12:36;;;;;;;7.50;2.60;;;;;;;10.62;100.00;100980.81;5028517;28;20045;-73
2023/11/07 05:15:03;;;;;;;5.07;2.40;;;;;;;10.50;100.00;100983.72;5063881;28;20135;-73
2023/11/07 05:17:29;;;;;;;9.05;2.42;;;;;;;10.46;100.00;100986.09;5071953;28;20031;-73
2023/11/07 05:19:54;;;;;;;13.02;3.53;;;;;;;10.39;100.00;100961.69;5071581;28;20049;-73
2023/11/07 05:22:20;;;;;;;5.80;3.00;;;;;;;10.62;100.00;100990.25;5071613;28;20035;-73
2023/11/07 05:24:51;;;;;;;5.05;3.20;;;;;;;10.60;100.00;100992.75;5070718;28;20024;-74
2023/11/07 05:27:16;;;;;;;7.47;2.60;;;;;;;10.62;100.00;100998.88;5036500;28;20418;-73
2023/11/07 05:29:42;;;;;;;7.60;2.97;;;;;;;10.68;100.00;100995.69;5071731;28;20024;-73
2023/11/07 05:32:07;;;;;;;5.80;2.47;;;;;;;10.73;100.00;101003.63;5054054;28;20120;-73
2023/11/07 05:34:39;;;;;;;7.03;2.40;;;;;;;10.75;100.00;101005.47;5071904;28;20482;-74
2023/11/07 05:37:04;;;;;;;6.30;2.67;;;;;;;10.80;100.00;101018.59;5054278;28;20442;-73
2023/11/07 05:39:30;;;;;;;9.43;2.80;;;;;;;10.80;100.00;101016.91;5053652;28;20111;-73
2023/11/07 05:41:55;;;;;;;6.75;2.78;;;;;;;10.87;100.00;101017.19;5071643;28;20031;-73
2023/11/07 05:44:21;;;;;;;8.13;3.50;;;;;;;10.93;100.00;101026.09;5071608;28;20047;-73
2023/11/07 05:46:46;;;;;;;7.32;2.47;;;;;;;10.84;100.00;101008.47;5053724;28;20100;-73
2023/11/07 05:49:11;;;;;;;3.67;2.50;;;;;;;10.36;100.00;100935.75;5071432;28;20029;-73
2023/11/07 05:51:38;;;;;;;10.55;3.00;;;;;;;10.68;100.00;101029.28;5071545;28;20021;-72
2023/11/07 05:54:04;;;;;;;5.35;2.60;;;;;;;10.57;100.00;101026.19;5070062;28;20043;-72
2023/11/07 05:56:29;;;;;;;8.40;2.85;;;;;;;10.74;100.00;101036.41;5071335;28;20420;-72
2023/11/07 05:58:54;;;;;;;12.48;3.38;;;;;;;10.53;100.00;100988.16;5071159;28;20040;-72
2023/11/07 06:01:20;;;;;;;9.07;2.92;;;;;;;10.91;100.00;101040.63;5071307;28;20028;-72
2023/11/07 06:03:46;;;;;;;6.05;2.80;;;;;;;11.00;100.00;101040.16;5071073;28;20082;-72
2023/11/07 06:06:12;;;;;;;8.10;3.13;;;;;;;10.70;100.00;100969.94;5069652;28;20035;-72
2023/11/07 06:08:38;;;;;;;7.72;2.90;;;;;;;11.12;100.00;101051.03;5052641;28;20111;-73
2023/11/07 06:11:04;;;;;;;8.73;2.97;;;;;;;11.16;100.00;101058.13;5071036;28;20103;-72
2023/11/07 06:13:29;;;;;;;9.65;3.33;;;;;;;11.14;100.00;101041.66;5070825;28;20157;-72
2023/11/07 06:15:55;;;;;;;8.60;3.25;;;;;;;11.27;100.00;101055.09;5070505;28;20036;-72
2023/11/07 06:18:21;;;;;;;9.02;3.08;;;;;;;11.30;100.00;101055.22;5070695;28;20040;-73
2023/11/07 06:20:47;;;;;;;8.50;3.10;;;;;;;11.29;100.00;101053.44;5070985;28;20426;-72
2023/11/07 06:23:12;;;;;;;9.07;3.15;;;;;;;11.28;100.00;101057.75;5070224;28;20028;-73
2023/11/07 06:25:38;;;;;;;10.65;3.60;;;;;;;11.31;100.00;101046.66;5052687;28;20035;-72
2023/11/07 06:28:03;;;;;;;14.48;4.75;;;;;;;11.47;100.00;101049.06;5070866;28;20029;-72
2023/11/07 06:30:29;;;;;;;10.00;4.03;;;;;;;11.58;100.00;101065.06;5070741;28;20036;-72
2023/11/07 06:32:56;;;;;;;8.25;4.13;;;;;;;11.32;100.00;100996.72;5070504;28;20028;-72
2023/11/07 06:35:22;;;;;;;8.88;4.30;;;;;;;11.73;100.00;101069.13;5071098;28;20062;-72
2023/11/07 06:37:47;;;;;;;11.10;5.35;;;;;;;11.84;100.00;101067.84;5070226;28;20024;-72
2023/11/07 06:40:17;;;;;;;10.10;4.13;;;;;;;11.82;100.00;101048.78;5070629;28;20032;-73
2023/11/07 06:42:43;;;;;;;12.60;4.50;;;;;;;11.91;100.00;101061.22;5070431;28;20063;-72
2023/11/07 06:45:12;;;;;;;8.55;4.43;;;;;;;12.06;100.00;101072.25;5070155;28;20025;-72
2023/11/07 06:47:41;;;;;;;9.65;4.43;;;;;;;12.00;100.00;101047.81;5070517;28;20032;-72
2023/11/07 06:50:08;;;;;;;13.70;4.50;;;;;;;12.24;100.00;101069.50;5070363;28;20478;-73
2023/11/07 06:52:37;;;;;;;9.63;3.80;;;;;;;12.49;100.00;101067.00;5070029;28;20027;-72
2023/11/07 06:55:04;;;;;;;8.60;4.38;;;;;;;12.67;100.00;101067.69;5070840;28;20097;-72
2023/11/07 06:57:29;;;;;;;9.18;4.82;;;;;;;12.72;100.00;101055.81;5070474;28;20124;-73
2023/11/07 06:59:55;;;;;;;12.98;4.13;;;;;;;12.91;99.73;101059.06;5070024;28;20107;-72
2023/11/07 07:02:20;;;;;;;7.95;3.90;;;;;;;13.05;99.55;101065.66;5070008;28;20016;-72
2023/11/07 07:04:46;;;;;;;8.10;3.83;;;;;;;13.22;98.90;101078.31;5070306;28;20031;-72
2023/11/07 07:07:12;;;;;;;9.75;4.00;;;;;;;13.39;98.27;101073.78;5070058;28;20047;-73
2023/11/07 07:09:39;;;;;;;7.28;4.10;;;;;;;13.51;97.43;101066.44;5070407;28;20020;-72
2023/11/07 07:12:05;;;;;;;10.35;3.90;;;;;;;13.43;96.27;101073.94;5035341;28;20036;-72
2023/11/07 07:14:31;;;;;;;11.10;3.97;;;;;;;13.47;96.78;101068.84;5070250;28;20619;-72
2023/11/07 07:16:56;;;;;;;8.38;3.67;;;;;;;13.56;96.72;101075.25;5070380;28;20036;-72
2023/11/07 07:19:21;;;;;;;8.70;3.83;;;;;;;13.73;95.52;101068.06;5070221;28;20120;-72
2023/11/07 07:21:47;;;;;;;7.68;4.00;;;;;;;13.86;94.69;101071.94;5069710;28;20087;-72
2023/11/07 07:24:15;;;;;;;12.32;4.15;;;;;;;13.93;95.63;101077.31;5070090;28;20032;-72
2023/11/07 07:26:46;;;;;;;9.20;3.92;;;;;;;13.94;94.89;101074.75;5031776;28;20054;-72
2023/11/07 07:29:13;;;;;;;8.95;3.33;;;;;;;13.98;94.55;101065.38;5069775;28;20085;-73
2023/11/07 07:31:41;;;;;;;10.05;4.40;;;;;;;14.13;93.37;101068.47;5069510;28;20048;-73
2023/11/07 07:34:08;;;;;;;8.57;3.80;;;;;;;14.23;92.85;101067.03;5069309;28;20043;-73
2023/11/07 07:36:43;;;;;;;17.27;4.88;;;;;;;13.97;93.83;101029.84;5055149;28;20115;-72
2023/11/07 07:39:32;;;;;;;10.15;4.10;;;;;;;14.20;93.42;101059.16;5073482;28;20075;-73
2023/11/07 07:42:09;;;;;;;7.68;3.55;;;;;;;14.43;92.64;101070.28;5070892;28;20024;-74
2023/11/07 07:44:40;;;;;;;8.63;4.00;;;;;;;14.43;92.34;101077.16;5073120;28;20040;-73
2023/11/07 07:47:07;;;;;;;9.27;3.63;;;;;;;14.46;93.46;101069.47;5073251;28;20016;-74
2023/11/07 07:49:33;;;;;;;7.30;3.67;;;;;;;14.15;92.29;100995.81;5071156;28;20612;-73
2023/11/07 07:52:01;;;;;;;10.55;4.22;;;;;;;14.65;92.57;101065.75;5073003;28;20029;-73
2023/11/07 07:54:29;;;;;;;11.77;3.58;;;;;;;14.63;91.91;101055.28;5070276;28;20017;-73
2023/11/07 07:56:56;;;;;;;7.35;3.20;;;;;;;14.70;92.18;101049.47;5072931;28;20037;-74
2023/11/07 07:59:23;;;;;;;9.48;3.70;;;;;;;14.81;91.27;101049.75;5073059;28;20029;-73
2023/11/07 08:01:52;;;;;;;9.75;3.67;;;;;;;14.91;91.49;101052.63;5072766;28;20479;-74
2023/11/07 08:04:18;;;;;;;;;;;;;;;15.09;91.21;101054.88;5073506;28;20025;-72
2023/11/07 08:06:44;;;;;;;8.63;3.00;;;;;;;15.16;90.74;101056.81;5072773;28;20282;-73
2023/11/07 08:09:13;;;;;;;6.65;3.72;;;;;;;15.20;89.71;101045.63;5067220;28;20029;-73
2023/11/07 08:11:39;;;;;;;8.02;3.97;;;;;;;15.48;88.18;101049.00;5060074;28;20026;-72
2023/11/07 08:14:04;;;;;;;7.10;2.95;;;;;;;15.56;87.81;101050.06;5029095;28;20033;-73
2023/11/07 08:16:29;;;;;;;5.60;3.17;;;;;;;15.11;88.16;100969.97;5072629;28;20028;-73
2023/11/07 08:18:55;;;;;;;6.43;3.30;;;;;;;15.66;88.35;101058.97;5072191;28;20113;-73
2023/11/07 08:21:21;;;;;;;7.32;3.25;;;;;;;15.83;86.97;101049.91;5072383;28;20021;-72
2023/11/07 08:23:47;;;;;;;9.88;3.45;;;;;;;15.91;87.13;101050.09;5072575;28;20029;-72
2023/11/07 08:26:13;;;;;;;7.03;3.15;;;;;;;16.10;85.18;101056.63;5054249;28;20401;-74
2023/11/07 08:28:43;;;;;;;13.05;4.05;;;;;;;16.10;84.62;101056.63;5069256;28;20052;-74
2023/11/07 08:31:11;;;;;;;9.45;2.95;;;;;;;15.77;84.16;100988.97;5072006;28;20623;-73
2023/11/07 08:33:38;;;;;;;8.75;3.15;;;;;;;16.21;83.10;101054.25;5072259;28;20020;-71
2023/11/07 08:36:04;;;;;;;5.22;2.60;;;;;;;16.01;82.62;101014.72;5072509;28;20024;-71
2023/11/07 08:38:29;;;;;;;7.95;2.60;;;;;;;16.36;82.21;101050.25;5066357;28;20033;-72
2023/11/07 08:40:59;;;;;;;8.93;3.47;;;;;;;16.52;83.96;101054.09;5057752;28;20028;-72
2023/11/07 08:43:24;;;;;;;;;;;;;;;16.59;83.46;101048.16;5035217;28;20425;-72
2023/11/07 08:45:50;;;;;;;7.15;2.60;;;;;;;16.57;82.55;101052.47;5052221;28;19913;-72
2023/11/07 08:48:15;;;;;;;7.72;2.47;;;;;;;16.69;81.17;101046.66;5051639;28;20475;-73
2023/11/07 08:50:41;;;;;;;6.10;3.22;;;;;;;16.65;81.94;101012.66;5052177;28;20490;-74
2023/11/07 08:53:06;;;;;;;6.88;2.78;;;;;;;16.98;82.31;101052.47;5052415;28;20508;-73
2023/11/07 08:55:32;;;;;;;9.90;2.13;;;;;;;17.05;80.14;101037.84;5058945;28;20025;-72
2023/11/07 08:57:57;;;;;;;9.13;2.92;;;;;;;17.27;79.95;101041.72;5062441;28;20497;-73
2023/11/07 09:00:24;;;;;;;9.30;2.92;;;;;;;17.42;80.58;101041.13;5052533;28;20037;-73
2023/11/07 09:02:51;;;;;;;8.43;2.28;;;;;;;17.54;78.05;101043.06;5052046;28;20471;-72
2023/11/07 09:05:17;;;;;;;6.35;2.50;;;;;;;17.34;78.20;100983.56;5052020;28;20568;-72
2023/11/07 09:07:43;;;;;;;6.35;2.22;;;;;;;17.56;78.77;101031.81;5052332;28;20029;-72
2023/11/07 09:10:11;;;;;;;6.63;2.58;;;;;;;17.82;78.95;101048.75;5051914;28;20504;-72
2023/11/07 09:12:37;;;;;;;9.70;2.72;;;;;;;17.98;77.29;101039.47;5052455;28;20113;-72
2023/11/07 09:15:05;;;;;;;5.40;2.25;;;;;;;18.14;76.64;101030.13;5052120;28;20380;-72
2023/11/07 09:17:32;;;;;;;6.95;2.40;;;;;;;18.27;75.89;101035.56;5016629;28;20143;-73
2023/11/07 09:19:57;;;;;;;7.85;2.20;;;;;;;18.42;76.32;101034.03;5051768;28;20067;-72
2023/11/07 09:22:23;;;;;;;9.13;2.50;;;;;;;18.48;75.58;101018.44;5051615;28;20025;-72
2023/11/07 09:24:48;;;;;;;9.00;2.65;;;;;;;18.54;75.16;101012.38;5052122;28;20029;-72
2023/11/07 09:27:14;;;;;;;6.45;2.20;;;;;;;18.39;75.22;100973.84;5052137;28;20025;-72
2023/11/07 09:29:39;;;;;;;6.47;2.10;;;;;;;18.73;75.86;101010.91;5000153;28;20047;-72
2023/11/07 09:32:05;;;;;;;6.07;1.90;;;;;;;18.67;74.75;100976.81;5051785;28;20031;-72
2023/11/07 09:34:31;;;;;;;10.45;2.25;;;;;;;19.00;74.63;101012.94;5051810;28;20082;-72
2023/11/07 09:36:58;;;;;;;8.02;2.28;;;;;;;19.03;73.33;101006.91;5052164;28;20467;-72
2023/11/07 09:39:26;;;;;;;7.57;2.42;;;;;;;19.06;73.50;101006.91;5051777;28;20021;-73
2023/11/07 09:41:52;;;;;;;15.10;3.63;;;;;;;19.05;72.49;100995.59;5051884;28;20164;-72
2023/11/07 09:44:18;;;;;;;8.73;3.40;;;;;;;19.21;73.75;100991.34;5051770;28;20036;-72
2023/11/07 09:46:44;;;;;;;18.83;3.03;;;;;;;19.31;72.29;100988.84;5051494;28;20027;-72
2023/11/07 09:49:12;;;;;;;11.80;3.38;;;;;;;19.38;71.95;100995.91;5051443;28;20033;-72
2023/11/07 09:51:38;;;;;;;9.93;3.08;;;;;;;19.52;72.93;100993.41;5051221;28;20450;-72
2023/11/07 09:54:06;;;;;;;9.63;2.40;;;;;;;19.68;72.27;100989.16;5051366;28;20040;-72
2023/11/07 09:56:39;;;;;;;11.50;3.13;;;;;;;19.76;73.30;100978.72;5051409;28;20029;-72
2023/11/07 09:59:19;;;;;;;12.07;3.78;;;;;;;19.73;71.49;100990.94;5050996;28;20035;-71
2023/11/07 10:01:47;;;;;;;11.63;3.15;;;;;;;19.76;72.73;100976.13;5052640;28;20067;-72
2023/11/07 10:04:14;;;;;;;15.45;4.30;;;;;;;19.84;71.29;100983.19;5070640;28;20031;-72
2023/11/07 10:06:40;;;;;;;17.85;5.57;;;;;;;19.86;71.54;100983.19;5070982;28;20078;-72
2023/11/07 10:09:06;;;;;;;14.25;3.92;;;;;;;20.00;72.66;100981.56;5071335;28;20032;-71
2023/11/07 10:11:49;;;;;;;9.73;2.50;;;;;;;19.55;71.39;100913.13;5071113;28;20095;-73
2023/11/07 10:14:17;;;;;;;11.63;3.15;;;;;;;19.71;72.17;100966.50;5070832;28;20025;-72
2023/11/07 10:16:43;;;;;;;9.05;2.53;;;;;;;19.78;72.63;100966.53;5070647;28;20024;-72
2023/11/07 10:19:28;;;;;;;9.38;2.35;;;;;;;20.00;73.11;100957.97;5070850;28;20055;-72
2023/11/07 10:21:54;;;;;;;6.95;2.47;;;;;;;20.17;71.70;100951.94;5070387;28;20055;-72
2023/11/07 10:24:20;;;;;;;9.05;2.45;;;;;;;20.29;72.83;100948.50;5070680;28;20501;-72
2023/11/07 10:26:55;;;;;;;6.50;2.40;;;;;;;20.19;71.80;100900.41;5070828;28;20035;-72
2023/11/07 10:29:26;;;;;;;6.05;2.28;;;;;;;20.67;70.33;100940.78;5070867;28;20021;-73
2023/11/07 10:32:09;;;;;;;6.20;2.30;;;;;;;20.45;68.62;100878.63;5070869;28;20032;-73
2023/11/07 10:34:36;;;;;;;9.98;2.58;;;;;;;20.49;67.44;100864.66;5070564;28;20093;-72
2023/11/07 10:37:04;;;;;;;9.30;2.40;;;;;;;20.90;67.33;100924.25;5070460;28;20540;-72
2023/11/07 10:39:32;;;;;;;9.43;2.50;;;;;;;20.90;66.77;100923.34;5070588;28;20044;-72
2023/11/07 10:42:17;;;;;;;13.38;2.65;;;;;;;20.88;67.43;100919.88;5070696;28;20471;-72
2023/11/07 10:44:44;;;;;;;10.13;2.45;;;;;;;20.97;67.04;100914.59;5070379;28;20086;-72
2023/11/07 10:47:10;;;;;;;5.60;2.28;;;;;;;20.89;66.32;100906.75;5070576;28;20025;-72
2023/11/07 10:49:36;;;;;;;10.73;2.60;;;;;;;20.93;66.87;100899.75;5070622;28;20032;-72
2023/11/07 10:52:05;;;;;;;13.65;3.35;;;;;;;20.98;67.10;100882.25;5070390;28;20073;-72
2023/11/07 10:54:31;;;;;;;17.25;3.42;;;;;;;21.21;66.63;100892.75;5068017;28;20020;-71
2023/11/07 10:57:02;;;;;;;7.80;2.65;;;;;;;21.37;66.04;100896.25;5069494;28;20027;-72
2023/11/07 10:59:29;;;;;;;12.65;2.83;;;;;;;21.32;65.78;100869.09;5069653;28;20028;-72
2023/11/07 11:02:01;;;;;;;8.48;2.40;;;;;;;21.58;66.75;100884.00;5066384;28;20090;-72
2023/11/07 11:04:34;;;;;;;9.75;2.75;;;;;;;21.70;65.24;100878.72;5026671;28;20557;-72
2023/11/07 11:07:07;;;;;;;12.10;2.65;;;;;;;21.83;64.89;100871.66;5067059;28;20478;-73
2023/11/07 11:09:35;;;;;;;8.93;2.70;;;;;;;21.81;64.15;100858.53;5069231;28;20035;-72
2023/11/07 11:12:04;;;;;;;11.63;2.78;;;;;;;21.09;63.93;100724.75;5067385;28;20103;-73
2023/11/07 11:14:30;;;;;;;9.90;2.55;;;;;;;22.03;64.27;100854.94;5016782;28;20040;-70
2023/11/07 11:17:17;;;;;;;6.68;2.30;;;;;;;22.10;62.82;100857.53;5018721;28;20036;-72
2023/11/07 11:19:53;;;;;;;8.93;2.25;;;;;;;22.16;63.16;100848.75;5018131;28;20068;-72